Pagrindinis puslapis
METAR-TAF:

METAR-TAF

Oro uostai :

Hammerfest, Norvegija

platuma: 70-40N, ilguma: 023-40E, Aukštis: 8 m

Dabartinis oras

Ataskaita buvo paskelbta 39 minutes, ne 11:50 UTC
Vėjas 7 kt iš Pietų/Pietryčių, svyruoja nuo Rytų/Pietryčių ir Pietų/Pietvakarių
Temperatūra 1°C
Drėgmė 75%
Slėgis 996 hPa
Matomumas 10 km arba daugiau
Mažai debesys ne aukštis 2900 ft
Išsisklaidę debesys ne aukštis 7400 ft
Su prošvaistėmis ne aukštis 9600 ft

METAR: ENHF 161150Z 16007KT 120V200 9999 FEW029 SCT074 BKN096 01/M03 Q0996 RMK WIND 1254FT 18011KT

Laikas: 13:29 (12:29 UTC)

Prognozė

Ataskaita buvo paskelbta 1 valandą ir 29 minutes, ne 11:00 UTC
Prognozė galioja nuo 16 metu 12 UTC su 16 metu 21 UTC
Vėjas 8 kt iš Rytų/Pietryčių
Matomumas 10 km arba daugiau
Išsisklaidę debesys ne aukštis 2000 ft
Su prošvaistėmis ne aukštis 6000 ft
Laikinai
nuo 16 metu 12 UTC su 16 metu 21 UTC
Matomumas: 3000 m
ne aukštis 1200 ft
sniegas

TAF: ENHF 161100Z 1612/1621 12008KT 9999 SCT020 BKN060 TEMPO 1612/1621 3000 -SN VV012

Orai ataskaitas ir orų prognozės (METAR, TAF).

turimą stotys yra geltonos ir raudonos taškus žemėlapyje.

Perkelti pele per norėdami pamatyti stoties vardą.

Tada spustelėkite, norėdami matyti oro stebėjimo ir prognozės.

Norėdami pakeisti žemėlapį: spustelėkite ant žalios mygtukų su juodo kryžiaus žemyn,; žalią mygtuką su brūkšneliu, jei norite nutolinti; arba žalių rodyklių gretimoms žemėlapius.


METAR-TAF: